createdAt,value
2017-09-08T00:00:55.231Z,17.25
2017-09-08T00:01:55.226Z,17.25
2017-09-08T00:02:55.220Z,17.24
2017-09-08T00:03:55.216Z,17.27
2017-09-08T00:04:55.211Z,17.27
2017-09-08T00:05:55.207Z,17.27
2017-09-08T00:06:55.207Z,17.22
2017-09-08T00:07:55.201Z,17.25
2017-09-08T00:08:55.197Z,17.24
2017-09-08T00:09:55.193Z,17.24
2017-09-08T00:10:55.184Z,17.22
2017-09-08T00:11:55.179Z,17.25
2017-09-08T00:12:55.175Z,17.28
2017-09-08T00:13:55.171Z,17.25
2017-09-08T00:14:55.169Z,17.27
2017-09-08T00:15:55.164Z,17.30
2017-09-08T00:16:55.163Z,17.33
2017-09-08T00:17:55.156Z,17.30
2017-09-08T00:18:55.150Z,17.32
2017-09-08T00:19:55.146Z,17.25
2017-09-08T00:20:55.143Z,17.30
2017-09-08T00:21:55.137Z,17.25
2017-09-08T00:22:55.128Z,17.25
2017-09-08T00:23:55.125Z,17.25
2017-09-08T00:24:55.126Z,17.22
2017-09-08T00:25:55.116Z,17.30
2017-09-08T00:26:55.110Z,17.21
2017-09-08T00:27:55.106Z,17.25
2017-09-08T00:28:55.101Z,17.25
2017-09-08T00:29:55.097Z,17.25
2017-09-08T00:30:55.097Z,17.27
2017-09-08T00:31:55.092Z,17.27
2017-09-08T00:32:55.087Z,17.25
2017-09-08T00:33:55.083Z,17.30
2017-09-08T00:34:55.078Z,17.28
2017-09-08T00:35:55.074Z,17.27
2017-09-08T00:36:55.069Z,17.25
2017-09-08T00:37:55.066Z,17.32
2017-09-08T00:38:55.055Z,17.28
2017-09-08T00:39:55.051Z,17.38
2017-09-08T00:40:55.048Z,17.21
2017-09-08T00:41:55.042Z,17.27
2017-09-08T00:42:55.037Z,17.28
2017-09-08T00:43:55.033Z,17.22
2017-09-08T00:44:55.034Z,17.24
2017-09-08T00:45:55.026Z,17.27
2017-09-08T00:46:55.023Z,17.25
2017-09-08T00:47:55.019Z,17.28
2017-09-08T00:48:55.015Z,17.25
2017-09-08T00:49:55.016Z,17.30
2017-09-08T00:50:55.005Z,17.35
2017-09-08T00:51:55.001Z,17.33
2017-09-08T00:52:54.997Z,17.30
2017-09-08T00:53:54.993Z,17.32
2017-09-08T00:54:54.984Z,17.24
2017-09-08T00:55:54.982Z,17.25
2017-09-08T00:56:54.974Z,17.22
2017-09-08T00:57:54.970Z,17.24
2017-09-08T00:58:54.965Z,17.27
2017-09-08T00:59:54.960Z,17.21
2017-09-08T01:00:54.957Z,17.28
2017-09-08T01:01:54.952Z,17.21
2017-09-08T01:02:54.951Z,17.33
2017-09-08T01:03:54.947Z,17.22
2017-09-08T01:04:54.975Z,17.25
2017-09-08T01:05:54.938Z,17.30
2017-09-08T01:06:54.934Z,17.24
2017-09-08T01:07:54.930Z,17.28
2017-09-08T01:08:54.929Z,17.32
2017-09-08T01:09:54.920Z,17.25
2017-09-08T01:10:54.912Z,17.25
2017-09-08T01:11:54.908Z,17.33
2017-09-08T01:12:54.903Z,17.22
2017-09-08T01:13:54.904Z,17.28
2017-09-08T01:14:54.897Z,17.27
2017-09-08T01:15:54.893Z,17.33
2017-09-08T01:16:54.889Z,17.24
2017-09-08T01:17:54.885Z,17.20
2017-09-08T01:18:54.874Z,17.25
2017-09-08T01:19:54.872Z,17.27
2017-09-08T01:20:54.866Z,17.38
2017-09-08T01:21:54.862Z,17.32
2017-09-08T01:22:54.857Z,17.25
2017-09-08T01:23:54.852Z,17.32
2017-09-08T01:24:54.851Z,17.32
2017-09-08T01:25:54.844Z,17.30
2017-09-08T01:26:54.842Z,17.35
2017-09-08T01:27:54.844Z,17.27
2017-09-08T01:28:54.836Z,17.27
2017-09-08T01:29:54.830Z,17.28
2017-09-08T01:30:54.828Z,17.38
2017-09-08T01:31:54.822Z,17.28
2017-09-08T01:32:54.816Z,17.36
2017-09-08T01:33:54.812Z,17.39
2017-09-08T01:34:54.803Z,17.32
2017-09-08T01:35:54.797Z,17.32
2017-09-08T01:36:54.794Z,17.28
2017-09-08T01:37:54.789Z,17.28
2017-09-08T01:38:54.782Z,17.24
2017-09-08T01:39:54.778Z,17.25
2017-09-08T01:40:54.778Z,17.25
2017-09-08T01:41:54.771Z,17.20
2017-09-08T01:42:54.769Z,17.25
2017-09-08T01:43:54.764Z,17.22
2017-09-08T01:44:54.761Z,17.18
2017-09-08T01:45:54.756Z,17.22
2017-09-08T01:46:54.751Z,17.22
2017-09-08T01:47:54.745Z,17.25
2017-09-08T01:48:54.740Z,17.14
2017-09-08T01:49:54.738Z,17.18
2017-09-08T01:50:54.728Z,17.22
2017-09-08T01:51:54.726Z,17.17
2017-09-08T01:52:54.719Z,17.17
2017-09-08T01:53:54.715Z,17.20
2017-09-08T01:54:54.710Z,17.17
2017-09-08T01:55:54.705Z,17.18
2017-09-08T01:56:54.702Z,17.22
2017-09-08T01:57:54.717Z,17.21
2017-09-08T01:58:54.693Z,17.18
2017-09-08T01:59:54.702Z,17.22
2017-09-08T02:00:54.685Z,17.22
2017-09-08T02:01:54.681Z,17.27
2017-09-08T02:02:54.675Z,17.24
2017-09-08T02:03:54.670Z,17.22
2017-09-08T02:04:54.667Z,17.28
2017-09-08T02:05:54.661Z,17.30
2017-09-08T02:06:54.653Z,17.22
2017-09-08T02:07:54.647Z,17.36
2017-09-08T02:08:54.643Z,17.32
2017-09-08T02:09:54.640Z,17.25
2017-09-08T02:10:54.634Z,17.24
2017-09-08T02:11:54.629Z,17.35
2017-09-08T02:12:54.624Z,17.30
2017-09-08T02:13:54.620Z,17.25
2017-09-08T02:14:54.619Z,17.30
2017-09-08T02:15:54.616Z,17.21
2017-09-08T02:16:54.609Z,17.22
2017-09-08T02:17:54.605Z,17.24
2017-09-08T02:18:54.600Z,17.25
2017-09-08T02:19:54.596Z,17.27
2017-09-08T02:20:54.591Z,17.18
2017-09-08T02:21:54.586Z,17.24
2017-09-08T02:22:54.579Z,17.25
2017-09-08T02:23:54.574Z,17.27
2017-09-08T02:24:54.569Z,17.21
2017-09-08T02:25:54.564Z,17.18
2017-09-08T02:26:54.560Z,17.18
2017-09-08T02:27:54.554Z,17.20
2017-09-08T02:28:54.551Z,17.18
2017-09-08T02:29:54.545Z,17.12
2017-09-08T02:30:54.545Z,17.25
2017-09-08T02:31:54.540Z,17.24
2017-09-08T02:32:54.536Z,17.22
2017-09-08T02:33:54.533Z,17.15
2017-09-08T02:34:54.526Z,17.25
2017-09-08T02:35:54.523Z,17.20
2017-09-08T02:36:54.519Z,17.22
2017-09-08T02:37:54.512Z,17.25
2017-09-08T02:38:54.502Z,17.17
2017-09-08T02:39:54.498Z,17.28
2017-09-08T02:40:54.494Z,17.24
2017-09-08T02:41:54.489Z,17.24
2017-09-08T02:42:54.486Z,17.24
2017-09-08T02:43:54.482Z,17.15
2017-09-08T02:44:54.475Z,17.18
2017-09-08T02:45:54.472Z,17.24
2017-09-08T02:46:54.470Z,17.17
2017-09-08T02:47:54.466Z,17.15
2017-09-08T02:48:54.461Z,17.17
2017-09-08T02:49:54.457Z,17.12
2017-09-08T02:50:54.451Z,17.15
2017-09-08T02:51:54.446Z,17.27
2017-09-08T02:52:54.442Z,17.17
2017-09-08T02:53:54.440Z,17.14
2017-09-08T02:54:54.428Z,17.09
2017-09-08T02:55:54.424Z,17.18
2017-09-08T02:56:54.420Z,17.15
2017-09-08T02:57:54.415Z,17.10
2017-09-08T02:58:54.411Z,17.17
2017-09-08T02:59:54.406Z,17.15
2017-09-08T03:00:54.401Z,17.06
2017-09-08T03:01:54.396Z,17.17
2017-09-08T03:02:54.395Z,17.17
2017-09-08T03:03:54.391Z,17.07
2017-09-08T03:04:54.386Z,17.12
2017-09-08T03:05:54.381Z,17.18
2017-09-08T03:06:54.377Z,17.07
2017-09-08T03:07:54.371Z,17.09
2017-09-08T03:08:54.369Z,17.17
2017-09-08T03:09:54.365Z,17.14
2017-09-08T03:10:54.353Z,17.09
2017-09-08T03:11:54.349Z,17.09
2017-09-08T03:12:54.345Z,17.07
2017-09-08T03:13:54.341Z,17.09
2017-09-08T03:14:54.334Z,17.09
2017-09-08T03:15:54.330Z,17.10
2017-09-08T03:16:54.327Z,17.07
2017-09-08T03:17:54.321Z,17.06
2017-09-08T03:18:54.319Z,17.06
2017-09-08T03:19:54.317Z,17.15
2017-09-08T03:20:54.310Z,17.15
2017-09-08T03:21:54.307Z,17.03
2017-09-08T03:22:54.297Z,17.15
2017-09-08T03:23:54.292Z,17.18
2017-09-08T03:24:54.289Z,17.15
2017-09-08T03:25:54.283Z,17.07
2017-09-08T03:26:54.282Z,17.10
2017-09-08T03:27:54.280Z,17.06
2017-09-08T03:28:54.273Z,17.05
2017-09-08T03:29:54.268Z,17.09
2017-09-08T03:30:54.264Z,17.10
2017-09-08T03:31:54.259Z,17.14
2017-09-08T03:32:54.254Z,17.10
2017-09-08T03:33:54.250Z,17.18
2017-09-08T03:34:54.240Z,17.06
2017-09-08T03:35:54.237Z,17.10
2017-09-08T03:36:54.231Z,17.15
2017-09-08T03:37:54.228Z,17.09
2017-09-08T03:38:54.221Z,17.14
2017-09-08T03:39:54.218Z,17.06
2017-09-08T03:40:54.212Z,17.14
2017-09-08T03:41:54.208Z,17.07
2017-09-08T03:42:54.207Z,17.10
2017-09-08T03:43:54.219Z,17.07
2017-09-08T03:44:54.197Z,17.10
2017-09-08T03:45:54.193Z,17.10
2017-09-08T03:46:54.187Z,17.07
2017-09-08T03:47:54.192Z,17.06
2017-09-08T03:48:54.177Z,17.09
2017-09-08T03:49:54.175Z,17.09
2017-09-08T03:50:54.164Z,17.05
2017-09-08T03:51:54.162Z,17.14
2017-09-08T03:52:54.155Z,17.09
2017-09-08T03:53:54.153Z,17.06
2017-09-08T03:54:54.145Z,17.06
2017-09-08T03:55:54.142Z,17.06
2017-09-08T03:56:54.137Z,17.09
2017-09-08T03:57:54.134Z,17.10
2017-09-08T03:58:54.131Z,17.06
2017-09-08T03:59:54.126Z,17.10
2017-09-08T04:00:54.121Z,17.07
2017-09-08T04:01:54.117Z,17.09
2017-09-08T04:02:54.111Z,17.00
2017-09-08T04:03:54.108Z,17.03
2017-09-08T04:04:54.102Z,16.99
2017-09-08T04:05:54.098Z,17.05
2017-09-08T04:06:54.089Z,17.03
2017-09-08T04:07:54.083Z,17.07
2017-09-08T04:08:54.080Z,17.00
2017-09-08T04:09:54.075Z,16.99
2017-09-08T04:10:54.069Z,17.03
2017-09-08T04:11:54.065Z,17.00
2017-09-08T04:12:54.061Z,16.96
2017-09-08T04:13:54.056Z,16.85
2017-09-08T04:14:54.059Z,16.96
2017-09-08T04:15:54.051Z,16.92
2017-09-08T04:16:54.046Z,16.92
2017-09-08T04:17:54.043Z,16.88
2017-09-08T04:18:54.035Z,16.91
2017-09-08T04:19:54.030Z,16.84
2017-09-08T04:20:54.026Z,16.98
2017-09-08T04:21:54.021Z,16.92
2017-09-08T04:22:54.012Z,16.91
2017-09-08T04:23:54.007Z,16.95
2017-09-08T04:24:54.003Z,16.98
2017-09-08T04:25:54.005Z,16.95
2017-09-08T04:26:53.998Z,16.91
2017-09-08T04:27:53.992Z,16.90
2017-09-08T04:28:53.987Z,16.88
2017-09-08T04:29:53.984Z,16.88
2017-09-08T04:30:53.975Z,16.91
2017-09-08T04:31:53.970Z,16.90
2017-09-08T04:32:53.965Z,16.95
2017-09-08T04:33:53.961Z,16.91
2017-09-08T04:34:53.955Z,16.92
2017-09-08T04:35:53.950Z,16.90
2017-09-08T04:36:53.945Z,16.98
2017-09-08T04:37:53.942Z,16.99
2017-09-08T04:38:53.940Z,16.90
2017-09-08T04:39:53.935Z,16.92
2017-09-08T04:40:53.930Z,16.98
2017-09-08T04:41:53.927Z,16.96
2017-09-08T04:42:53.922Z,16.95
2017-09-08T04:43:53.916Z,16.84
2017-09-08T04:44:53.913Z,16.92
2017-09-08T04:45:53.907Z,16.87
2017-09-08T04:46:53.897Z,16.88
2017-09-08T04:47:53.894Z,16.87
2017-09-08T04:48:53.887Z,16.87
2017-09-08T04:49:53.883Z,16.99
2017-09-08T04:50:53.879Z,16.98
2017-09-08T04:51:53.873Z,16.88
2017-09-08T04:52:53.868Z,17.00
2017-09-08T04:53:53.870Z,17.00
2017-09-08T04:54:53.863Z,17.00
2017-09-08T04:55:53.859Z,16.98
2017-09-08T04:56:53.853Z,16.92
2017-09-08T04:57:53.850Z,17.02
2017-09-08T04:58:53.844Z,16.96
2017-09-08T04:59:53.839Z,17.00
2017-09-08T05:00:53.834Z,16.99
2017-09-08T05:01:53.830Z,16.96
2017-09-08T05:02:53.820Z,17.00
2017-09-08T05:03:53.816Z,16.99
2017-09-08T05:04:53.811Z,17.00
2017-09-08T05:05:53.808Z,16.99
2017-09-08T05:06:53.802Z,17.00
2017-09-08T05:07:53.797Z,17.05
2017-09-08T05:08:53.792Z,17.05
2017-09-08T05:09:53.808Z,16.98
2017-09-08T05:10:53.786Z,17.00
2017-09-08T05:11:53.783Z,17.00
2017-09-08T05:12:53.778Z,17.03
2017-09-08T05:13:53.773Z,16.99
2017-09-08T05:14:53.767Z,17.00
2017-09-08T05:15:53.762Z,17.00
2017-09-08T05:16:53.758Z,17.00
2017-09-08T05:17:53.754Z,16.95
2017-09-08T05:18:53.743Z,16.92
2017-09-08T05:19:53.739Z,16.91
2017-09-08T05:20:53.734Z,16.90
2017-09-08T05:21:53.730Z,16.77
2017-09-08T05:22:53.725Z,16.80
2017-09-08T05:23:53.720Z,16.77
2017-09-08T05:24:53.736Z,16.81
2017-09-08T05:25:53.711Z,16.82
2017-09-08T05:26:53.710Z,16.81
2017-09-08T05:27:53.704Z,16.73
2017-09-08T05:28:53.701Z,16.81
2017-09-08T05:29:53.695Z,16.72
2017-09-08T05:30:53.685Z,16.81
2017-09-08T05:31:53.682Z,16.81
2017-09-08T05:32:53.676Z,16.82
2017-09-08T05:33:53.673Z,16.81
2017-09-08T05:34:53.671Z,16.84
2017-09-08T05:35:53.668Z,16.69
2017-09-08T05:36:53.661Z,16.73
2017-09-08T05:37:53.657Z,16.72
2017-09-08T05:38:53.651Z,16.70
2017-09-08T05:39:53.646Z,16.80
2017-09-08T05:40:53.642Z,16.87
2017-09-08T05:41:53.637Z,16.77
2017-09-08T05:42:53.627Z,16.87
2017-09-08T05:43:53.622Z,16.81
2017-09-08T05:44:53.619Z,16.80
2017-09-08T05:45:53.612Z,16.77
2017-09-08T05:46:53.608Z,16.78
2017-09-08T05:47:53.602Z,16.85
2017-09-08T05:48:53.621Z,16.80
2017-09-08T05:49:53.593Z,16.81
2017-09-08T05:50:53.592Z,16.80
2017-09-08T05:51:53.588Z,16.77
2017-09-08T05:52:53.582Z,16.82
2017-09-08T05:53:53.579Z,16.82
2017-09-08T05:54:53.572Z,16.78
2017-09-08T05:55:53.567Z,16.87
2017-09-08T05:56:53.563Z,16.88
2017-09-08T05:57:53.558Z,16.88
2017-09-08T05:58:53.548Z,16.91
2017-09-08T05:59:53.543Z,16.91
2017-09-08T06:00:53.539Z,16.92
2017-09-08T06:01:53.534Z,16.99
2017-09-08T06:02:53.530Z,16.91
2017-09-08T06:03:53.524Z,17.06
2017-09-08T06:04:53.521Z,17.10
2017-09-08T06:05:53.514Z,17.06
2017-09-08T06:06:53.513Z,17.06
2017-09-08T06:07:53.509Z,17.09
2017-09-08T06:08:53.504Z,17.12
2017-09-08T06:09:53.500Z,17.18
2017-09-08T06:10:53.496Z,17.24
2017-09-08T06:11:53.490Z,17.22
2017-09-08T06:12:53.487Z,17.21
2017-09-08T06:13:53.480Z,17.18
2017-09-08T06:14:53.471Z,17.24
2017-09-08T06:15:53.467Z,17.15
2017-09-08T06:16:53.462Z,17.20
2017-09-08T06:17:53.457Z,17.12
2017-09-08T06:18:53.458Z,17.24
2017-09-08T06:19:53.447Z,17.24
2017-09-08T06:20:53.443Z,17.27
2017-09-08T06:21:53.439Z,17.22
2017-09-08T06:22:53.437Z,17.25
2017-09-08T06:23:53.432Z,17.25
2017-09-08T06:24:53.434Z,17.30
2017-09-08T06:25:53.424Z,17.22
2017-09-08T06:26:53.419Z,17.25
2017-09-08T06:27:53.415Z,17.25
2017-09-08T06:28:53.409Z,17.27
2017-09-08T06:29:53.410Z,17.36
2017-09-08T06:30:53.396Z,17.33
2017-09-08T06:31:53.391Z,17.38
2017-09-08T06:32:53.387Z,17.43
2017-09-08T06:33:53.384Z,17.40
2017-09-08T06:34:53.377Z,17.33
2017-09-08T06:35:53.374Z,17.35
2017-09-08T06:36:53.369Z,17.33
2017-09-08T06:37:53.368Z,17.25
2017-09-08T06:38:53.363Z,17.25
2017-09-08T06:39:53.359Z,17.22
2017-09-08T06:40:53.354Z,17.38
2017-09-08T06:41:53.350Z,17.40
2017-09-08T06:42:53.345Z,17.30
2017-09-08T06:43:53.344Z,17.32
2017-09-08T06:44:53.337Z,17.35
2017-09-08T06:45:53.333Z,17.39
2017-09-08T06:46:53.324Z,17.32
2017-09-08T06:47:53.318Z,17.30
2017-09-08T06:48:53.315Z,17.38
2017-09-08T06:49:53.311Z,17.28
2017-09-08T06:50:53.305Z,17.32
2017-09-08T06:51:53.300Z,17.36
2017-09-08T06:52:53.297Z,17.32
2017-09-08T06:53:53.294Z,17.39
2017-09-08T06:54:53.290Z,17.40
2017-09-08T06:55:53.287Z,17.40
2017-09-08T06:56:53.282Z,17.39
2017-09-08T06:57:53.278Z,17.33
2017-09-08T06:58:53.273Z,17.36
2017-09-08T06:59:53.269Z,17.33
2017-09-08T07:00:53.266Z,17.42
2017-09-08T07:01:53.260Z,17.43
2017-09-08T07:02:53.252Z,17.39
2017-09-08T07:03:53.246Z,17.45
2017-09-08T07:04:53.242Z,17.51
2017-09-08T07:05:53.240Z,17.40
2017-09-08T07:06:53.233Z,17.42
2017-09-08T07:07:53.229Z,17.42
2017-09-08T07:08:53.224Z,17.42
2017-09-08T07:09:53.219Z,17.46
2017-09-08T07:10:53.223Z,17.47
2017-09-08T07:11:53.215Z,17.51
2017-09-08T07:12:53.210Z,17.49
2017-09-08T07:13:53.208Z,17.58
2017-09-08T07:14:53.201Z,17.58
2017-09-08T07:15:53.197Z,17.57
2017-09-08T07:16:53.192Z,17.60
2017-09-08T07:17:53.188Z,17.57
2017-09-08T07:18:53.178Z,17.55
2017-09-08T07:19:53.176Z,17.60
2017-09-08T07:20:53.171Z,17.62
2017-09-08T07:21:53.166Z,17.60
2017-09-08T07:22:53.161Z,17.65
2017-09-08T07:23:53.157Z,17.60
2017-09-08T07:24:53.153Z,17.53
2017-09-08T07:25:53.151Z,17.65
2017-09-08T07:26:53.149Z,17.63
2017-09-08T07:27:53.144Z,17.65
2017-09-08T07:28:53.141Z,17.62
2017-09-08T07:29:53.136Z,17.74
2017-09-08T07:30:53.133Z,17.65
2017-09-08T07:31:53.128Z,17.76
2017-09-08T07:32:53.123Z,17.76
2017-09-08T07:33:53.121Z,17.83
2017-09-08T07:34:53.111Z,17.80
2017-09-08T07:35:53.106Z,17.77
2017-09-08T07:36:53.102Z,17.79
2017-09-08T07:37:53.099Z,17.77
2017-09-08T07:38:53.097Z,17.83
2017-09-08T07:39:53.095Z,17.81
2017-09-08T07:40:53.089Z,17.79
2017-09-08T07:41:53.085Z,17.73
2017-09-08T07:42:53.077Z,17.83
2017-09-08T07:43:53.072Z,17.76
2017-09-08T07:44:53.068Z,17.71
2017-09-08T07:45:53.065Z,17.79
2017-09-08T07:46:53.060Z,17.80
2017-09-08T07:47:53.056Z,17.80
2017-09-08T07:48:53.052Z,17.79
2017-09-08T07:49:53.050Z,17.76
2017-09-08T07:50:53.047Z,17.84
2017-09-08T07:51:53.043Z,17.83
2017-09-08T07:52:53.040Z,17.86
2017-09-08T07:53:53.034Z,17.86
2017-09-08T07:54:53.031Z,17.87
2017-09-08T07:55:53.026Z,17.98
2017-09-08T07:56:53.047Z,17.98
2017-09-08T07:57:53.018Z,17.95
2017-09-08T07:58:53.009Z,17.95
2017-09-08T07:59:53.006Z,17.98
2017-09-08T08:00:53.000Z,17.89
2017-09-08T08:01:52.997Z,17.89
2017-09-08T08:02:52.991Z,17.86
2017-09-08T08:03:52.988Z,17.89
2017-09-08T08:04:52.985Z,17.73
2017-09-08T08:05:52.980Z,17.77
2017-09-08T08:06:52.979Z,17.76
2017-09-08T08:07:52.976Z,17.80
2017-09-08T08:08:52.973Z,17.79
2017-09-08T08:09:52.968Z,17.77
2017-09-08T08:10:52.963Z,17.79
2017-09-08T08:11:52.959Z,17.74
2017-09-08T08:12:52.956Z,17.80
2017-09-08T08:13:52.950Z,17.80
2017-09-08T08:14:52.942Z,17.73
2017-09-08T08:15:52.937Z,17.74
2017-09-08T08:16:52.934Z,17.68
2017-09-08T08:17:52.932Z,17.74
2017-09-08T08:18:52.926Z,17.60
2017-09-08T08:19:52.921Z,17.60
2017-09-08T08:20:52.917Z,17.63
2017-09-08T08:21:52.913Z,17.58
2017-09-08T08:22:52.913Z,17.63
2017-09-08T08:23:52.908Z,17.55
2017-09-08T08:24:52.907Z,17.58
2017-09-08T08:25:52.907Z,17.57
2017-09-08T08:26:52.901Z,17.54
2017-09-08T08:27:52.897Z,17.49
2017-09-08T08:28:52.888Z,17.49
2017-09-08T08:29:52.884Z,17.47
2017-09-08T08:30:52.874Z,17.47
2017-09-08T08:31:52.870Z,17.40
2017-09-08T08:32:52.866Z,17.47
2017-09-08T08:33:52.862Z,17.53
2017-09-08T08:34:52.856Z,17.53
2017-09-08T08:35:52.853Z,17.47
2017-09-08T08:36:52.848Z,17.54
2017-09-08T08:37:52.844Z,17.49
2017-09-08T08:38:52.844Z,17.57
2017-09-08T08:39:52.839Z,17.57
2017-09-08T08:40:52.835Z,17.55
2017-09-08T08:41:52.831Z,17.58
2017-09-08T08:42:52.826Z,17.58
2017-09-08T08:43:52.817Z,17.65
2017-09-08T08:44:52.814Z,17.62
2017-09-08T08:45:52.808Z,17.71
2017-09-08T08:46:52.808Z,17.74
2017-09-08T08:47:52.805Z,17.79
2017-09-08T08:48:52.800Z,17.83
2017-09-08T08:49:52.796Z,17.74
2017-09-08T08:50:52.791Z,17.79
2017-09-08T08:51:52.787Z,17.86
2017-09-08T08:52:52.782Z,17.96
2017-09-08T08:53:52.779Z,17.96
2017-09-08T08:54:52.769Z,18.09
2017-09-08T08:55:52.765Z,18.01
2017-09-08T08:56:52.761Z,18.01
2017-09-08T08:57:52.758Z,18.16
2017-09-08T08:58:52.752Z,18.19
2017-09-08T08:59:52.750Z,18.39
2017-09-08T09:00:52.750Z,18.23
2017-09-08T09:01:52.741Z,18.21
2017-09-08T09:02:52.741Z,18.26
2017-09-08T09:03:52.737Z,18.25
2017-09-08T09:04:52.732Z,18.20
2017-09-08T09:05:52.731Z,18.29
2017-09-08T09:06:52.723Z,18.25
2017-09-08T09:07:52.720Z,18.34
2017-09-08T09:08:52.716Z,18.17
2017-09-08T09:09:52.713Z,18.23
2017-09-08T09:10:52.704Z,18.28
2017-09-08T09:11:52.701Z,18.32
2017-09-08T09:12:52.696Z,18.34
2017-09-08T09:13:52.692Z,18.38
2017-09-08T09:14:52.688Z,18.32
2017-09-08T09:15:52.686Z,18.36
2017-09-08T09:16:52.680Z,18.25
2017-09-08T09:17:52.679Z,18.28
2017-09-08T09:18:52.675Z,18.38
2017-09-08T09:19:52.672Z,18.29
2017-09-08T09:20:52.670Z,18.41
2017-09-08T09:21:52.665Z,18.36
2017-09-08T09:22:52.660Z,18.49
2017-09-08T09:23:52.658Z,18.47
2017-09-08T09:24:52.653Z,18.50
2017-09-08T09:25:52.649Z,18.51
2017-09-08T09:26:52.643Z,18.50
2017-09-08T09:27:52.637Z,18.62
2017-09-08T09:28:52.635Z,18.65
2017-09-08T09:29:52.630Z,18.66
2017-09-08T09:30:52.625Z,18.60
2017-09-08T09:31:52.622Z,18.69
2017-09-08T09:32:52.620Z,18.66
2017-09-08T09:33:52.614Z,18.60
2017-09-08T09:34:52.616Z,18.60
2017-09-08T09:35:52.611Z,18.69
2017-09-08T09:36:52.608Z,18.66
2017-09-08T09:37:52.605Z,18.71
2017-09-08T09:38:52.601Z,18.69
2017-09-08T09:39:52.596Z,18.65
2017-09-08T09:40:52.594Z,18.69
2017-09-08T09:41:52.590Z,18.60
2017-09-08T09:42:52.581Z,18.57
2017-09-08T09:43:52.579Z,18.38
2017-09-08T09:44:52.580Z,18.34
2017-09-08T09:45:52.570Z,18.29
2017-09-08T09:46:52.572Z,18.26
2017-09-08T09:47:52.567Z,18.23
2017-09-08T09:48:52.563Z,18.20
2017-09-08T09:49:52.562Z,18.25
2017-09-08T09:50:52.552Z,18.29
2017-09-08T09:51:52.550Z,18.28
2017-09-08T09:52:52.544Z,18.32
2017-09-08T09:53:52.542Z,18.38
2017-09-08T09:54:52.537Z,18.41
2017-09-08T09:55:52.532Z,18.39
2017-09-08T09:56:52.532Z,18.34
2017-09-08T09:57:52.529Z,18.38
2017-09-08T09:58:52.525Z,18.49
2017-09-08T09:59:52.522Z,18.36
2017-09-08T10:00:52.517Z,18.35
2017-09-08T10:01:52.514Z,18.34
2017-09-08T10:02:52.510Z,18.31
2017-09-08T10:03:52.507Z,18.32
2017-09-08T10:04:52.504Z,18.46
2017-09-08T10:05:52.502Z,18.36
2017-09-08T10:06:52.496Z,18.35
2017-09-08T10:07:52.487Z,18.35
2017-09-08T10:08:52.487Z,18.38
2017-09-08T10:09:52.481Z,18.32
2017-09-08T10:10:52.484Z,18.34
2017-09-08T10:11:52.471Z,18.38
2017-09-08T10:12:52.468Z,18.35
2017-09-08T10:13:52.465Z,18.34
2017-09-08T10:14:52.464Z,18.25
2017-09-08T10:15:52.466Z,18.39
2017-09-08T10:16:52.458Z,18.34
2017-09-08T10:17:52.454Z,18.46
2017-09-08T10:18:52.457Z,18.41
2017-09-08T10:19:52.455Z,18.42
2017-09-08T10:20:52.450Z,18.41
2017-09-08T10:21:52.438Z,18.46
2017-09-08T10:22:52.429Z,18.46
2017-09-08T10:23:52.431Z,18.50
2017-09-08T10:24:52.456Z,18.53
2017-09-08T10:25:52.423Z,18.50
2017-09-08T10:26:52.415Z,18.49
2017-09-08T10:27:52.412Z,18.51
2017-09-08T10:28:52.407Z,18.51
2017-09-08T10:29:52.406Z,18.49
2017-09-08T10:30:52.405Z,18.51
2017-09-08T10:31:52.400Z,18.41
2017-09-08T10:32:52.398Z,18.51
2017-09-08T10:33:52.393Z,18.38
2017-09-08T10:34:52.389Z,18.46
2017-09-08T10:35:52.385Z,18.47
2017-09-08T10:36:52.383Z,18.31
2017-09-08T10:37:52.379Z,18.42
2017-09-08T10:38:52.373Z,18.34
2017-09-08T10:39:52.366Z,18.41
2017-09-08T10:40:52.363Z,18.34
2017-09-08T10:41:52.362Z,18.31
2017-09-08T10:42:52.356Z,18.20
2017-09-08T10:43:52.352Z,18.17
2017-09-08T10:44:52.348Z,17.98
2017-09-08T10:45:52.344Z,17.77
2017-09-08T10:46:52.344Z,17.76
2017-09-08T10:47:52.341Z,17.63
2017-09-08T10:48:52.337Z,17.65
2017-09-08T10:49:52.338Z,17.58
2017-09-08T10:50:52.326Z,17.46
2017-09-08T10:51:52.322Z,17.43
2017-09-08T10:52:52.317Z,17.38
2017-09-08T10:53:52.314Z,17.40
2017-09-08T10:54:52.313Z,17.40
2017-09-08T10:55:52.311Z,17.35
2017-09-08T10:56:52.305Z,17.22
2017-09-08T10:57:52.302Z,17.21
2017-09-08T10:58:52.299Z,17.06
2017-09-08T10:59:52.297Z,17.07
2017-09-08T11:00:52.290Z,17.15
2017-09-08T11:01:52.286Z,17.14
2017-09-08T11:02:52.277Z,17.06
2017-09-08T11:03:52.275Z,17.09
2017-09-08T11:04:52.269Z,17.06
2017-09-08T11:05:52.266Z,16.95
2017-09-08T11:06:52.260Z,16.92
2017-09-08T11:07:52.257Z,16.84
2017-09-08T11:08:52.255Z,16.72
2017-09-08T11:09:52.248Z,16.60
2017-09-08T11:10:52.248Z,16.69
2017-09-08T11:11:52.246Z,16.65
2017-09-08T11:12:52.240Z,16.60
2017-09-08T11:13:52.237Z,16.52
2017-09-08T11:14:52.231Z,16.57
2017-09-08T11:15:52.229Z,16.54
2017-09-08T11:16:52.223Z,16.51
2017-09-08T11:17:52.219Z,16.60
2017-09-08T11:18:52.215Z,16.72
2017-09-08T11:19:52.204Z,16.72
2017-09-08T11:20:52.202Z,16.63
2017-09-08T11:21:52.196Z,16.63
2017-09-08T11:22:52.191Z,16.57
2017-09-08T11:23:52.186Z,16.51
2017-09-08T11:24:52.183Z,16.44
2017-09-08T11:25:52.179Z,16.40
2017-09-08T11:26:52.177Z,16.45
2017-09-08T11:27:52.172Z,16.51
2017-09-08T11:28:52.169Z,16.51
2017-09-08T11:29:52.163Z,16.48
2017-09-08T11:30:52.158Z,16.40
2017-09-08T11:31:52.154Z,16.41
2017-09-08T11:32:52.149Z,16.47
2017-09-08T11:33:52.144Z,16.48
2017-09-08T11:34:52.135Z,16.47
2017-09-08T11:35:52.130Z,16.45
2017-09-08T11:36:52.126Z,16.37
2017-09-08T11:37:52.122Z,16.40
2017-09-08T11:38:52.117Z,16.29
2017-09-08T11:39:52.110Z,16.34
2017-09-08T11:40:52.107Z,16.27
2017-09-08T11:41:52.101Z,16.33
2017-09-08T11:42:52.100Z,16.34
2017-09-08T11:43:52.096Z,16.36
2017-09-08T11:44:52.090Z,16.33
2017-09-08T11:45:52.087Z,16.33
2017-09-08T11:46:52.081Z,16.33
2017-09-08T11:47:52.075Z,16.33
2017-09-08T11:48:52.071Z,16.34
2017-09-08T11:49:52.065Z,16.42
2017-09-08T11:50:52.057Z,16.44
2017-09-08T11:51:52.053Z,16.41
2017-09-08T11:52:52.046Z,16.47
2017-09-08T11:53:52.042Z,16.37
2017-09-08T11:54:52.040Z,16.47
2017-09-08T11:55:52.034Z,16.52
2017-09-08T11:56:52.031Z,16.55
2017-09-08T11:57:52.027Z,16.69
2017-09-08T11:58:52.015Z,16.63
2017-09-08T11:59:52.012Z,16.60
2017-09-08T12:00:52.006Z,16.63
2017-09-08T12:01:52.001Z,16.62
2017-09-08T12:02:51.995Z,16.72
2017-09-08T12:03:51.991Z,16.77
2017-09-08T12:04:51.987Z,16.73
2017-09-08T12:05:51.981Z,16.77
2017-09-08T12:06:51.979Z,16.72
2017-09-08T12:07:51.975Z,16.77
2017-09-08T12:08:51.971Z,16.80
2017-09-08T12:09:51.966Z,16.73
2017-09-08T12:10:51.959Z,16.80
2017-09-08T12:11:51.954Z,16.85
2017-09-08T12:12:51.950Z,16.80
2017-09-08T12:13:51.946Z,16.77
2017-09-08T12:14:51.941Z,16.77
2017-09-08T12:15:51.931Z,16.77
2017-09-08T12:16:51.926Z,16.75
2017-09-08T12:17:51.922Z,16.98
2017-09-08T12:18:51.917Z,16.88
2017-09-08T12:19:51.912Z,16.84
2017-09-08T12:20:51.909Z,16.90
2017-09-08T12:21:51.903Z,16.81
2017-09-08T12:22:51.902Z,16.78
2017-09-08T12:23:51.896Z,16.90
2017-09-08T12:24:51.893Z,16.95
2017-09-08T12:25:51.888Z,16.98
2017-09-08T12:26:51.882Z,16.96
2017-09-08T12:27:51.880Z,16.98
2017-09-08T12:28:51.873Z,16.88
2017-09-08T12:29:51.869Z,17.03
2017-09-08T12:30:51.859Z,17.03
2017-09-08T12:31:51.863Z,17.17
2017-09-08T12:32:51.851Z,17.10
2017-09-08T12:33:51.856Z,17.06
2017-09-08T12:34:51.840Z,17.12
2017-09-08T12:35:51.836Z,17.00
2017-09-08T12:36:51.833Z,17.12
2017-09-08T12:37:51.827Z,17.10
2017-09-08T12:38:51.826Z,17.09
2017-09-08T12:39:51.821Z,17.05
2017-09-08T12:40:51.817Z,17.00
2017-09-08T12:41:51.812Z,17.05
2017-09-08T12:42:51.811Z,16.96
2017-09-08T12:43:51.802Z,17.10
2017-09-08T12:44:51.799Z,17.15
2017-09-08T12:45:51.794Z,17.14
2017-09-08T12:46:51.784Z,17.10
2017-09-08T12:47:51.782Z,17.07
2017-09-08T12:48:51.777Z,17.07
2017-09-08T12:49:51.775Z,17.05
2017-09-08T12:50:51.767Z,17.00
2017-09-08T12:51:51.761Z,17.00
2017-09-08T12:52:51.757Z,16.96